sensor_id;sensor_type;location;lat;lon;timestamp;temperature;humidity
18541;DHT22;9400;50.924;5.328;2023-06-10T00:00:13;24.00;99.60
18541;DHT22;9400;50.924;5.328;2023-06-10T00:02:42;24.00;99.90
18541;DHT22;9400;50.924;5.328;2023-06-10T00:05:10;24.00;99.90
18541;DHT22;9400;50.924;5.328;2023-06-10T00:07:38;23.80;99.90
18541;DHT22;9400;50.924;5.328;2023-06-10T00:10:07;23.70;99.90
18541;DHT22;9400;50.924;5.328;2023-06-10T00:12:38;23.80;99.90
18541;DHT22;9400;50.924;5.328;2023-06-10T00:15:07;23.70;99.90
18541;DHT22;9400;50.924;5.328;2023-06-10T00:17:36;23.80;99.90
18541;DHT22;9400;50.924;5.328;2023-06-10T00:20:07;23.80;99.90
18541;DHT22;9400;50.924;5.328;2023-06-10T00:22:35;23.80;99.90
18541;DHT22;9400;50.924;5.328;2023-06-10T00:25:04;23.70;99.90
18541;DHT22;9400;50.924;5.328;2023-06-10T00:27:31;23.80;99.90
18541;DHT22;9400;50.924;5.328;2023-06-10T00:30:03;23.70;99.90
18541;DHT22;9400;50.924;5.328;2023-06-10T00:32:32;23.60;99.90
18541;DHT22;9400;50.924;5.328;2023-06-10T00:35:00;23.60;99.90
18541;DHT22;9400;50.924;5.328;2023-06-10T00:37:27;23.50;99.90
18541;DHT22;9400;50.924;5.328;2023-06-10T00:39:56;23.50;99.90
18541;DHT22;9400;50.924;5.328;2023-06-10T00:42:25;23.40;99.90
18541;DHT22;9400;50.924;5.328;2023-06-10T00:44:54;23.40;99.90
18541;DHT22;9400;50.924;5.328;2023-06-10T00:47:23;23.40;99.90
18541;DHT22;9400;50.924;5.328;2023-06-10T00:49:52;23.40;99.90
18541;DHT22;9400;50.924;5.328;2023-06-10T00:52:22;23.30;99.90
18541;DHT22;9400;50.924;5.328;2023-06-10T00:54:52;23.30;99.90
18541;DHT22;9400;50.924;5.328;2023-06-10T00:57:20;23.30;99.90
18541;DHT22;9400;50.924;5.328;2023-06-10T00:59:48;23.30;99.90
18541;DHT22;9400;50.924;5.328;2023-06-10T01:02:16;23.30;99.90
18541;DHT22;9400;50.924;5.328;2023-06-10T01:04:45;23.10;99.90
18541;DHT22;9400;50.924;5.328;2023-06-10T01:07:22;23.10;99.90
18541;DHT22;9400;50.924;5.328;2023-06-10T01:09:57;23.10;99.90
18541;DHT22;9400;50.924;5.328;2023-06-10T01:12:31;23.00;99.90
18541;DHT22;9400;50.924;5.328;2023-06-10T01:15:01;23.00;99.90
18541;DHT22;9400;50.924;5.328;2023-06-10T01:17:30;22.90;99.90
18541;DHT22;9400;50.924;5.328;2023-06-10T01:19:59;22.90;99.90
18541;DHT22;9400;50.924;5.328;2023-06-10T01:22:32;22.90;99.90
18541;DHT22;9400;50.924;5.328;2023-06-10T01:25:03;22.80;99.90
18541;DHT22;9400;50.924;5.328;2023-06-10T01:27:36;22.80;99.90
18541;DHT22;9400;50.924;5.328;2023-06-10T01:30:10;22.70;99.90
18541;DHT22;9400;50.924;5.328;2023-06-10T01:32:44;22.70;99.90
18541;DHT22;9400;50.924;5.328;2023-06-10T01:35:13;22.60;99.90
18541;DHT22;9400;50.924;5.328;2023-06-10T01:37:45;22.60;99.90
18541;DHT22;9400;50.924;5.328;2023-06-10T01:40:14;22.50;99.90
18541;DHT22;9400;50.924;5.328;2023-06-10T01:42:42;22.50;99.90
18541;DHT22;9400;50.924;5.328;2023-06-10T01:45:11;22.50;99.90
18541;DHT22;9400;50.924;5.328;2023-06-10T01:47:38;22.50;99.90
18541;DHT22;9400;50.924;5.328;2023-06-10T01:50:07;22.50;99.90
18541;DHT22;9400;50.924;5.328;2023-06-10T01:52:35;22.40;99.90
18541;DHT22;9400;50.924;5.328;2023-06-10T01:55:06;22.40;99.90
18541;DHT22;9400;50.924;5.328;2023-06-10T01:57:35;22.40;99.90
18541;DHT22;9400;50.924;5.328;2023-06-10T02:00:03;22.40;99.90
18541;DHT22;9400;50.924;5.328;2023-06-10T02:02:31;22.30;99.90
18541;DHT22;9400;50.924;5.328;2023-06-10T02:04:59;22.20;99.90
18541;DHT22;9400;50.924;5.328;2023-06-10T02:07:27;22.20;99.90
18541;DHT22;9400;50.924;5.328;2023-06-10T02:09:54;22.20;99.90
18541;DHT22;9400;50.924;5.328;2023-06-10T02:12:24;22.20;99.90
18541;DHT22;9400;50.924;5.328;2023-06-10T02:14:52;22.20;99.90
18541;DHT22;9400;50.924;5.328;2023-06-10T02:17:19;22.20;99.90
18541;DHT22;9400;50.924;5.328;2023-06-10T02:19:47;22.20;99.90
18541;DHT22;9400;50.924;5.328;2023-06-10T02:22:19;22.00;99.90
18541;DHT22;9400;50.924;5.328;2023-06-10T02:24:47;22.00;99.90
18541;DHT22;9400;50.924;5.328;2023-06-10T02:27:15;21.90;99.90
18541;DHT22;9400;50.924;5.328;2023-06-10T02:29:45;21.90;99.90
18541;DHT22;9400;50.924;5.328;2023-06-10T02:32:12;21.90;99.90
18541;DHT22;9400;50.924;5.328;2023-06-10T02:34:39;21.90;99.90
18541;DHT22;9400;50.924;5.328;2023-06-10T02:37:08;21.90;99.90
18541;DHT22;9400;50.924;5.328;2023-06-10T02:39:35;21.90;99.90
18541;DHT22;9400;50.924;5.328;2023-06-10T02:42:03;21.80;99.90
18541;DHT22;9400;50.924;5.328;2023-06-10T02:44:31;21.70;99.90
18541;DHT22;9400;50.924;5.328;2023-06-10T02:47:00;21.70;99.90
18541;DHT22;9400;50.924;5.328;2023-06-10T02:49:27;21.60;99.90
18541;DHT22;9400;50.924;5.328;2023-06-10T02:51:54;21.60;99.90
18541;DHT22;9400;50.924;5.328;2023-06-10T02:54:22;21.60;99.90
18541;DHT22;9400;50.924;5.328;2023-06-10T02:56:51;21.50;99.90
18541;DHT22;9400;50.924;5.328;2023-06-10T02:59:22;21.40;99.90
18541;DHT22;9400;50.924;5.328;2023-06-10T03:01:49;21.40;99.90
18541;DHT22;9400;50.924;5.328;2023-06-10T03:04:19;21.40;99.90
18541;DHT22;9400;50.924;5.328;2023-06-10T03:06:46;21.40;99.90
18541;DHT22;9400;50.924;5.328;2023-06-10T03:09:14;21.40;99.90
18541;DHT22;9400;50.924;5.328;2023-06-10T03:11:41;21.30;99.90
18541;DHT22;9400;50.924;5.328;2023-06-10T03:14:09;21.30;99.90
18541;DHT22;9400;50.924;5.328;2023-06-10T03:16:37;21.30;99.90
18541;DHT22;9400;50.924;5.328;2023-06-10T03:19:06;21.30;99.90
18541;DHT22;9400;50.924;5.328;2023-06-10T03:21:36;21.30;99.90
18541;DHT22;9400;50.924;5.328;2023-06-10T03:24:08;21.30;99.90
18541;DHT22;9400;50.924;5.328;2023-06-10T03:26:37;21.20;99.90
18541;DHT22;9400;50.924;5.328;2023-06-10T03:29:05;21.20;99.90
18541;DHT22;9400;50.924;5.328;2023-06-10T03:31:32;21.30;99.90
18541;DHT22;9400;50.924;5.328;2023-06-10T03:34:01;21.20;99.90
18541;DHT22;9400;50.924;5.328;2023-06-10T03:36:28;21.30;99.90
18541;DHT22;9400;50.924;5.328;2023-06-10T03:38:57;21.30;99.90
18541;DHT22;9400;50.924;5.328;2023-06-10T03:41:25;21.30;99.90
18541;DHT22;9400;50.924;5.328;2023-06-10T03:43:52;21.30;99.90
18541;DHT22;9400;50.924;5.328;2023-06-10T03:46:24;21.30;99.90
18541;DHT22;9400;50.924;5.328;2023-06-10T03:48:51;21.20;99.90
18541;DHT22;9400;50.924;5.328;2023-06-10T03:51:19;21.10;99.90
18541;DHT22;9400;50.924;5.328;2023-06-10T03:53:46;21.10;99.90
18541;DHT22;9400;50.924;5.328;2023-06-10T03:56:15;21.00;99.90
18541;DHT22;9400;50.924;5.328;2023-06-10T03:58:43;21.00;99.90
18541;DHT22;9400;50.924;5.328;2023-06-10T04:01:11;21.10;99.90
18541;DHT22;9400;50.924;5.328;2023-06-10T04:03:39;21.00;99.90
18541;DHT22;9400;50.924;5.328;2023-06-10T04:06:09;21.00;99.90
18541;DHT22;9400;50.924;5.328;2023-06-10T04:08:37;20.90;99.90
18541;DHT22;9400;50.924;5.328;2023-06-10T04:11:05;21.10;99.90
18541;DHT22;9400;50.924;5.328;2023-06-10T04:13:34;21.10;99.90
18541;DHT22;9400;50.924;5.328;2023-06-10T04:16:02;21.10;99.90
18541;DHT22;9400;50.924;5.328;2023-06-10T04:18:30;20.90;99.90
18541;DHT22;9400;50.924;5.328;2023-06-10T04:20:58;20.90;99.90
18541;DHT22;9400;50.924;5.328;2023-06-10T04:23:25;20.90;99.90
18541;DHT22;9400;50.924;5.328;2023-06-10T04:25:52;20.90;99.90
18541;DHT22;9400;50.924;5.328;2023-06-10T04:28:20;21.00;99.90
18541;DHT22;9400;50.924;5.328;2023-06-10T04:30:49;21.00;99.90
18541;DHT22;9400;50.924;5.328;2023-06-10T04:33:16;21.00;99.90
18541;DHT22;9400;50.924;5.328;2023-06-10T04:35:44;21.00;99.90
18541;DHT22;9400;50.924;5.328;2023-06-10T04:38:13;21.00;99.90
18541;DHT22;9400;50.924;5.328;2023-06-10T04:40:41;21.00;99.90
18541;DHT22;9400;50.924;5.328;2023-06-10T04:43:09;21.10;99.90
18541;DHT22;9400;50.924;5.328;2023-06-10T04:45:36;21.00;99.90
18541;DHT22;9400;50.924;5.328;2023-06-10T04:48:06;21.10;99.90
18541;DHT22;9400;50.924;5.328;2023-06-10T04:50:34;21.10;99.90
18541;DHT22;9400;50.924;5.328;2023-06-10T04:53:01;21.20;99.90
18541;DHT22;9400;50.924;5.328;2023-06-10T04:55:29;21.20;99.90
18541;DHT22;9400;50.924;5.328;2023-06-10T04:57:56;21.30;99.90
18541;DHT22;9400;50.924;5.328;2023-06-10T05:00:24;21.30;99.90
18541;DHT22;9400;50.924;5.328;2023-06-10T05:02:52;21.30;99.90
18541;DHT22;9400;50.924;5.328;2023-06-10T05:05:21;21.40;99.90
18541;DHT22;9400;50.924;5.328;2023-06-10T05:07:48;21.40;99.90
18541;DHT22;9400;50.924;5.328;2023-06-10T05:10:19;21.40;99.90
18541;DHT22;9400;50.924;5.328;2023-06-10T05:12:46;21.40;99.90
18541;DHT22;9400;50.924;5.328;2023-06-10T05:15:14;21.40;99.90
18541;DHT22;9400;50.924;5.328;2023-06-10T05:17:42;21.40;99.90
18541;DHT22;9400;50.924;5.328;2023-06-10T05:20:11;21.40;99.90
18541;DHT22;9400;50.924;5.328;2023-06-10T05:22:40;21.40;99.90
18541;DHT22;9400;50.924;5.328;2023-06-10T05:25:08;21.40;99.90
18541;DHT22;9400;50.924;5.328;2023-06-10T05:27:36;21.50;99.90
18541;DHT22;9400;50.924;5.328;2023-06-10T05:30:04;21.60;99.90
18541;DHT22;9400;50.924;5.328;2023-06-10T05:32:33;21.70;99.90
18541;DHT22;9400;50.924;5.328;2023-06-10T05:35:00;21.70;99.90
18541;DHT22;9400;50.924;5.328;2023-06-10T05:37:29;21.80;99.90
18541;DHT22;9400;50.924;5.328;2023-06-10T05:39:58;21.80;99.90
18541;DHT22;9400;50.924;5.328;2023-06-10T05:42:26;22.00;99.90
18541;DHT22;9400;50.924;5.328;2023-06-10T05:44:53;22.00;99.90
18541;DHT22;9400;50.924;5.328;2023-06-10T05:47:20;22.10;99.90
18541;DHT22;9400;50.924;5.328;2023-06-10T05:49:48;22.20;99.90
18541;DHT22;9400;50.924;5.328;2023-06-10T05:52:17;22.20;99.90
18541;DHT22;9400;50.924;5.328;2023-06-10T05:54:45;22.20;99.90
18541;DHT22;9400;50.924;5.328;2023-06-10T05:57:15;22.40;99.90
18541;DHT22;9400;50.924;5.328;2023-06-10T05:59:45;22.50;99.90
18541;DHT22;9400;50.924;5.328;2023-06-10T06:02:12;22.50;99.90
18541;DHT22;9400;50.924;5.328;2023-06-10T06:04:40;22.60;99.90
18541;DHT22;9400;50.924;5.328;2023-06-10T06:07:07;22.70;99.90
18541;DHT22;9400;50.924;5.328;2023-06-10T06:09:34;22.90;99.90
18541;DHT22;9400;50.924;5.328;2023-06-10T06:12:02;23.00;99.90
18541;DHT22;9400;50.924;5.328;2023-06-10T06:14:37;23.00;99.90
18541;DHT22;9400;50.924;5.328;2023-06-10T06:17:06;23.00;99.90
18541;DHT22;9400;50.924;5.328;2023-06-10T06:19:33;23.00;99.90
18541;DHT22;9400;50.924;5.328;2023-06-10T06:22:01;23.20;99.90
18541;DHT22;9400;50.924;5.328;2023-06-10T06:24:28;23.30;99.90
18541;DHT22;9400;50.924;5.328;2023-06-10T06:26:59;23.40;99.90
18541;DHT22;9400;50.924;5.328;2023-06-10T06:29:27;23.40;99.90
18541;DHT22;9400;50.924;5.328;2023-06-10T06:31:57;23.50;99.90
18541;DHT22;9400;50.924;5.328;2023-06-10T06:34:24;23.70;99.90
18541;DHT22;9400;50.924;5.328;2023-06-10T06:36:52;23.60;99.90
18541;DHT22;9400;50.924;5.328;2023-06-10T06:39:19;23.80;99.90
18541;DHT22;9400;50.924;5.328;2023-06-10T06:41:47;24.00;99.90
18541;DHT22;9400;50.924;5.328;2023-06-10T06:44:14;24.10;99.90
18541;DHT22;9400;50.924;5.328;2023-06-10T06:46:42;24.10;99.90
18541;DHT22;9400;50.924;5.328;2023-06-10T06:49:10;24.20;99.90
18541;DHT22;9400;50.924;5.328;2023-06-10T06:51:38;24.30;99.90
18541;DHT22;9400;50.924;5.328;2023-06-10T06:54:05;24.40;99.90
18541;DHT22;9400;50.924;5.328;2023-06-10T06:56:33;24.40;99.90
18541;DHT22;9400;50.924;5.328;2023-06-10T06:59:00;24.50;99.90
18541;DHT22;9400;50.924;5.328;2023-06-10T07:01:28;24.50;99.90
18541;DHT22;9400;50.924;5.328;2023-06-10T07:03:55;24.60;99.90
18541;DHT22;9400;50.924;5.328;2023-06-10T07:06:24;24.60;99.90
18541;DHT22;9400;50.924;5.328;2023-06-10T07:08:52;24.50;99.90
18541;DHT22;9400;50.924;5.328;2023-06-10T07:11:19;24.70;99.90
18541;DHT22;9400;50.924;5.328;2023-06-10T07:13:47;24.80;99.90
18541;DHT22;9400;50.924;5.328;2023-06-10T07:16:15;25.00;99.90
18541;DHT22;9400;50.924;5.328;2023-06-10T07:18:42;25.10;99.90
18541;DHT22;9400;50.924;5.328;2023-06-10T07:21:10;25.10;99.90
18541;DHT22;9400;50.924;5.328;2023-06-10T07:23:42;25.20;99.90
18541;DHT22;9400;50.924;5.328;2023-06-10T07:26:10;25.30;99.90
18541;DHT22;9400;50.924;5.328;2023-06-10T07:28:42;25.50;99.90
18541;DHT22;9400;50.924;5.328;2023-06-10T07:31:09;25.60;99.90
18541;DHT22;9400;50.924;5.328;2023-06-10T07:33:38;25.80;99.90
18541;DHT22;9400;50.924;5.328;2023-06-10T07:36:06;25.90;99.90
18541;DHT22;9400;50.924;5.328;2023-06-10T07:38:34;25.90;99.90
18541;DHT22;9400;50.924;5.328;2023-06-10T07:41:03;26.00;99.90
18541;DHT22;9400;50.924;5.328;2023-06-10T07:43:31;26.10;99.90
18541;DHT22;9400;50.924;5.328;2023-06-10T07:45:58;26.00;99.90
18541;DHT22;9400;50.924;5.328;2023-06-10T07:48:26;26.00;99.90
18541;DHT22;9400;50.924;5.328;2023-06-10T07:50:54;26.00;99.90
18541;DHT22;9400;50.924;5.328;2023-06-10T07:53:21;26.10;99.90
18541;DHT22;9400;50.924;5.328;2023-06-10T07:55:49;26.30;99.90
18541;DHT22;9400;50.924;5.328;2023-06-10T07:58:17;26.20;1.00
18541;DHT22;9400;50.924;5.328;2023-06-10T08:00:47;26.20;1.00
18541;DHT22;9400;50.924;5.328;2023-06-10T08:03:14;26.20;1.00
18541;DHT22;9400;50.924;5.328;2023-06-10T08:05:42;26.30;1.00
18541;DHT22;9400;50.924;5.328;2023-06-10T08:08:09;26.40;1.00
18541;DHT22;9400;50.924;5.328;2023-06-10T08:10:37;26.50;1.00
18541;DHT22;9400;50.924;5.328;2023-06-10T08:13:04;26.70;1.00
18541;DHT22;9400;50.924;5.328;2023-06-10T08:15:34;26.70;1.00
18541;DHT22;9400;50.924;5.328;2023-06-10T08:18:01;26.90;1.00
18541;DHT22;9400;50.924;5.328;2023-06-10T08:20:29;27.00;1.00
18541;DHT22;9400;50.924;5.328;2023-06-10T08:22:56;27.00;1.00
18541;DHT22;9400;50.924;5.328;2023-06-10T08:25:24;27.00;1.00
18541;DHT22;9400;50.924;5.328;2023-06-10T08:27:51;27.00;1.00
18541;DHT22;9400;50.924;5.328;2023-06-10T08:30:22;27.20;1.00
18541;DHT22;9400;50.924;5.328;2023-06-10T08:32:51;27.40;1.00
18541;DHT22;9400;50.924;5.328;2023-06-10T08:35:19;27.60;1.00
18541;DHT22;9400;50.924;5.328;2023-06-10T08:37:46;27.70;1.00
18541;DHT22;9400;50.924;5.328;2023-06-10T08:40:14;27.70;1.00
18541;DHT22;9400;50.924;5.328;2023-06-10T08:42:45;27.80;1.00
18541;DHT22;9400;50.924;5.328;2023-06-10T08:45:17;27.70;1.00
18541;DHT22;9400;50.924;5.328;2023-06-10T08:47:46;27.70;1.00
18541;DHT22;9400;50.924;5.328;2023-06-10T08:50:19;27.70;1.00
18541;DHT22;9400;50.924;5.328;2023-06-10T08:52:48;27.70;1.00
18541;DHT22;9400;50.924;5.328;2023-06-10T08:55:21;27.70;1.00
18541;DHT22;9400;50.924;5.328;2023-06-10T08:57:52;27.90;1.00
18541;DHT22;9400;50.924;5.328;2023-06-10T09:00:21;28.00;1.00
18541;DHT22;9400;50.924;5.328;2023-06-10T09:02:49;28.20;1.00
18541;DHT22;9400;50.924;5.328;2023-06-10T09:05:19;28.30;1.00
18541;DHT22;9400;50.924;5.328;2023-06-10T09:07:49;28.20;1.00
18541;DHT22;9400;50.924;5.328;2023-06-10T09:10:18;28.40;1.00
18541;DHT22;9400;50.924;5.328;2023-06-10T09:12:46;28.30;1.00
18541;DHT22;9400;50.924;5.328;2023-06-10T09:15:14;28.40;1.00
18541;DHT22;9400;50.924;5.328;2023-06-10T09:17:43;28.50;1.00
18541;DHT22;9400;50.924;5.328;2023-06-10T09:20:11;28.70;1.00
18541;DHT22;9400;50.924;5.328;2023-06-10T09:22:42;28.90;1.00
18541;DHT22;9400;50.924;5.328;2023-06-10T09:25:11;29.10;1.00
18541;DHT22;9400;50.924;5.328;2023-06-10T09:27:46;28.90;1.00
18541;DHT22;9400;50.924;5.328;2023-06-10T09:30:26;29.00;1.00
18541;DHT22;9400;50.924;5.328;2023-06-10T09:32:54;29.10;1.00
18541;DHT22;9400;50.924;5.328;2023-06-10T09:35:23;29.30;1.00
18541;DHT22;9400;50.924;5.328;2023-06-10T09:37:54;29.50;1.00
18541;DHT22;9400;50.924;5.328;2023-06-10T09:40:22;29.40;1.00
18541;DHT22;9400;50.924;5.328;2023-06-10T09:42:53;29.30;1.00
18541;DHT22;9400;50.924;5.328;2023-06-10T09:45:22;29.50;1.00
18541;DHT22;9400;50.924;5.328;2023-06-10T09:47:52;29.80;1.00
18541;DHT22;9400;50.924;5.328;2023-06-10T09:50:21;30.00;1.00
18541;DHT22;9400;50.924;5.328;2023-06-10T09:52:50;30.10;1.00
18541;DHT22;9400;50.924;5.328;2023-06-10T09:55:19;30.20;1.00
18541;DHT22;9400;50.924;5.328;2023-06-10T09:57:49;30.20;1.00
18541;DHT22;9400;50.924;5.328;2023-06-10T10:00:22;30.30;1.00
18541;DHT22;9400;50.924;5.328;2023-06-10T10:02:52;30.30;1.00
18541;DHT22;9400;50.924;5.328;2023-06-10T10:05:21;30.50;1.00
18541;DHT22;9400;50.924;5.328;2023-06-10T10:07:49;30.50;1.00
18541;DHT22;9400;50.924;5.328;2023-06-10T10:10:19;30.50;1.00
18541;DHT22;9400;50.924;5.328;2023-06-10T10:12:48;30.40;1.00
18541;DHT22;9400;50.924;5.328;2023-06-10T10:15:18;30.50;1.00
18541;DHT22;9400;50.924;5.328;2023-06-10T10:17:51;30.60;1.00
18541;DHT22;9400;50.924;5.328;2023-06-10T10:20:22;30.70;1.00
18541;DHT22;9400;50.924;5.328;2023-06-10T10:22:52;30.50;1.00
18541;DHT22;9400;50.924;5.328;2023-06-10T10:25:28;30.40;1.00
18541;DHT22;9400;50.924;5.328;2023-06-10T10:27:59;30.60;1.00
18541;DHT22;9400;50.924;5.328;2023-06-10T10:30:30;30.80;1.00
18541;DHT22;9400;50.924;5.328;2023-06-10T10:33:08;31.00;1.00
18541;DHT22;9400;50.924;5.328;2023-06-10T10:35:38;31.20;1.00
18541;DHT22;9400;50.924;5.328;2023-06-10T10:38:06;31.30;1.00
18541;DHT22;9400;50.924;5.328;2023-06-10T10:40:36;31.40;1.00
18541;DHT22;9400;50.924;5.328;2023-06-10T10:43:06;31.70;1.00
18541;DHT22;9400;50.924;5.328;2023-06-10T10:45:35;31.70;1.00
18541;DHT22;9400;50.924;5.328;2023-06-10T10:48:07;31.60;1.00
18541;DHT22;9400;50.924;5.328;2023-06-10T10:50:37;31.70;1.00
18541;DHT22;9400;50.924;5.328;2023-06-10T10:53:06;31.90;1.00
18541;DHT22;9400;50.924;5.328;2023-06-10T10:55:36;32.10;1.00
18541;DHT22;9400;50.924;5.328;2023-06-10T10:58:05;32.40;1.00
18541;DHT22;9400;50.924;5.328;2023-06-10T11:00:37;32.10;1.00
18541;DHT22;9400;50.924;5.328;2023-06-10T11:03:06;32.30;1.00
18541;DHT22;9400;50.924;5.328;2023-06-10T11:05:39;32.10;1.00
18541;DHT22;9400;50.924;5.328;2023-06-10T11:08:08;32.30;1.00
18541;DHT22;9400;50.924;5.328;2023-06-10T11:10:38;32.30;1.00
18541;DHT22;9400;50.924;5.328;2023-06-10T11:13:09;32.20;1.00
18541;DHT22;9400;50.924;5.328;2023-06-10T11:15:43;32.50;1.00
18541;DHT22;9400;50.924;5.328;2023-06-10T11:18:13;32.50;1.00
18541;DHT22;9400;50.924;5.328;2023-06-10T11:20:58;32.30;1.00
18541;DHT22;9400;50.924;5.328;2023-06-10T11:23:41;32.20;1.00
18541;DHT22;9400;50.924;5.328;2023-06-10T11:26:15;32.50;1.00
18541;DHT22;9400;50.924;5.328;2023-06-10T11:29:08;32.40;1.00
18541;DHT22;9400;50.924;5.328;2023-06-10T11:31:43;31.90;1.00
18541;DHT22;9400;50.924;5.328;2023-06-10T11:34:11;31.90;1.00
18541;DHT22;9400;50.924;5.328;2023-06-10T11:36:41;32.30;1.00
18541;DHT22;9400;50.924;5.328;2023-06-10T11:39:11;32.50;1.00
18541;DHT22;9400;50.924;5.328;2023-06-10T11:41:40;32.50;1.00
18541;DHT22;9400;50.924;5.328;2023-06-10T11:44:09;32.80;1.00
18541;DHT22;9400;50.924;5.328;2023-06-10T11:46:37;32.70;1.00
18541;DHT22;9400;50.924;5.328;2023-06-10T11:49:06;32.90;1.00
18541;DHT22;9400;50.924;5.328;2023-06-10T11:51:35;33.00;1.00
18541;DHT22;9400;50.924;5.328;2023-06-10T11:54:03;33.00;1.00
18541;DHT22;9400;50.924;5.328;2023-06-10T11:56:31;32.90;1.00
18541;DHT22;9400;50.924;5.328;2023-06-10T11:59:03;32.80;1.00
18541;DHT22;9400;50.924;5.328;2023-06-10T12:01:33;32.50;1.00
18541;DHT22;9400;50.924;5.328;2023-06-10T12:04:04;33.10;1.00
18541;DHT22;9400;50.924;5.328;2023-06-10T12:06:40;33.60;1.00
18541;DHT22;9400;50.924;5.328;2023-06-10T12:09:14;33.90;1.00
18541;DHT22;9400;50.924;5.328;2023-06-10T12:11:42;34.10;1.00
18541;DHT22;9400;50.924;5.328;2023-06-10T12:14:12;34.00;1.00
18541;DHT22;9400;50.924;5.328;2023-06-10T12:16:39;33.50;1.00
18541;DHT22;9400;50.924;5.328;2023-06-10T12:19:07;33.30;1.00
18541;DHT22;9400;50.924;5.328;2023-06-10T12:21:37;33.00;1.00
18541;DHT22;9400;50.924;5.328;2023-06-10T12:24:09;33.10;1.00
18541;DHT22;9400;50.924;5.328;2023-06-10T12:26:42;33.50;1.00
18541;DHT22;9400;50.924;5.328;2023-06-10T12:29:29;34.00;1.00
18541;DHT22;9400;50.924;5.328;2023-06-10T12:32:00;35.00;1.00
18541;DHT22;9400;50.924;5.328;2023-06-10T12:34:32;34.60;1.00
18541;DHT22;9400;50.924;5.328;2023-06-10T12:37:00;33.60;1.00
18541;DHT22;9400;50.924;5.328;2023-06-10T12:39:29;34.30;1.00
18541;DHT22;9400;50.924;5.328;2023-06-10T12:41:56;34.70;1.00
18541;DHT22;9400;50.924;5.328;2023-06-10T12:44:33;34.50;1.00
18541;DHT22;9400;50.924;5.328;2023-06-10T12:47:06;34.40;1.00
18541;DHT22;9400;50.924;5.328;2023-06-10T12:49:34;34.20;1.00
18541;DHT22;9400;50.924;5.328;2023-06-10T12:52:03;34.40;1.00
18541;DHT22;9400;50.924;5.328;2023-06-10T12:54:31;35.00;1.00
18541;DHT22;9400;50.924;5.328;2023-06-10T12:56:59;35.20;1.00
18541;DHT22;9400;50.924;5.328;2023-06-10T12:59:27;34.90;1.00
18541;DHT22;9400;50.924;5.328;2023-06-10T13:01:56;34.40;1.00
18541;DHT22;9400;50.924;5.328;2023-06-10T13:04:24;34.50;1.00
18541;DHT22;9400;50.924;5.328;2023-06-10T13:06:51;34.40;1.00
18541;DHT22;9400;50.924;5.328;2023-06-10T13:09:18;35.00;1.00
18541;DHT22;9400;50.924;5.328;2023-06-10T13:11:45;35.70;1.00
18541;DHT22;9400;50.924;5.328;2023-06-10T13:14:13;35.80;1.00
18541;DHT22;9400;50.924;5.328;2023-06-10T13:16:41;36.00;1.00
18541;DHT22;9400;50.924;5.328;2023-06-10T13:19:14;35.90;1.00
18541;DHT22;9400;50.924;5.328;2023-06-10T13:21:42;35.30;1.00
18541;DHT22;9400;50.924;5.328;2023-06-10T13:24:09;35.90;1.00
18541;DHT22;9400;50.924;5.328;2023-06-10T13:26:37;36.10;1.00
18541;DHT22;9400;50.924;5.328;2023-06-10T13:29:04;36.20;1.00
18541;DHT22;9400;50.924;5.328;2023-06-10T13:31:33;37.20;1.00
18541;DHT22;9400;50.924;5.328;2023-06-10T13:34:01;36.90;1.00
18541;DHT22;9400;50.924;5.328;2023-06-10T13:36:30;36.50;1.00
18541;DHT22;9400;50.924;5.328;2023-06-10T13:38:57;37.30;1.00
18541;DHT22;9400;50.924;5.328;2023-06-10T13:41:24;37.50;1.00
18541;DHT22;9400;50.924;5.328;2023-06-10T13:43:53;37.60;1.00
18541;DHT22;9400;50.924;5.328;2023-06-10T13:46:20;37.80;1.00
18541;DHT22;9400;50.924;5.328;2023-06-10T13:48:49;37.30;1.00
18541;DHT22;9400;50.924;5.328;2023-06-10T13:51:16;37.00;1.00
18541;DHT22;9400;50.924;5.328;2023-06-10T13:53:45;37.00;1.00
18541;DHT22;9400;50.924;5.328;2023-06-10T13:56:13;37.20;1.00
18541;DHT22;9400;50.924;5.328;2023-06-10T13:58:41;36.30;1.00
18541;DHT22;9400;50.924;5.328;2023-06-10T14:01:09;37.70;1.00
18541;DHT22;9400;50.924;5.328;2023-06-10T14:03:36;38.50;1.00
18541;DHT22;9400;50.924;5.328;2023-06-10T14:06:04;37.50;1.00
18541;DHT22;9400;50.924;5.328;2023-06-10T14:08:31;37.20;1.00
18541;DHT22;9400;50.924;5.328;2023-06-10T14:11:00;36.60;1.00
18541;DHT22;9400;50.924;5.328;2023-06-10T14:13:28;36.40;1.00
18541;DHT22;9400;50.924;5.328;2023-06-10T14:15:58;37.10;1.00
18541;DHT22;9400;50.924;5.328;2023-06-10T14:18:28;37.40;1.00
18541;DHT22;9400;50.924;5.328;2023-06-10T14:20:56;37.70;1.00
18541;DHT22;9400;50.924;5.328;2023-06-10T14:23:24;38.20;1.00
18541;DHT22;9400;50.924;5.328;2023-06-10T14:25:52;38.10;1.00
18541;DHT22;9400;50.924;5.328;2023-06-10T14:28:21;38.90;1.00
18541;DHT22;9400;50.924;5.328;2023-06-10T14:30:56;39.00;1.00
18541;DHT22;9400;50.924;5.328;2023-06-10T14:33:25;39.00;1.00
18541;DHT22;9400;50.924;5.328;2023-06-10T14:35:52;39.60;1.00
18541;DHT22;9400;50.924;5.328;2023-06-10T14:38:20;39.90;1.00
18541;DHT22;9400;50.924;5.328;2023-06-10T16:06:23;38.80;1.00
18541;DHT22;9400;50.924;5.328;2023-06-10T16:08:51;39.20;1.00
18541;DHT22;9400;50.924;5.328;2023-06-10T16:11:19;39.00;1.00
18541;DHT22;9400;50.924;5.328;2023-06-10T16:13:47;39.40;1.00
18541;DHT22;9400;50.924;5.328;2023-06-10T16:16:15;39.40;1.00
18541;DHT22;9400;50.924;5.328;2023-06-10T16:18:42;40.20;1.00
18541;DHT22;9400;50.924;5.328;2023-06-10T16:21:10;39.20;1.00
18541;DHT22;9400;50.924;5.328;2023-06-10T16:23:39;39.70;1.00
18541;DHT22;9400;50.924;5.328;2023-06-10T16:26:06;39.60;1.00
18541;DHT22;9400;50.924;5.328;2023-06-10T16:28:34;39.50;1.00
18541;DHT22;9400;50.924;5.328;2023-06-10T16:31:01;39.10;1.00
18541;DHT22;9400;50.924;5.328;2023-06-10T16:33:28;38.90;1.00
18541;DHT22;9400;50.924;5.328;2023-06-10T16:35:56;39.30;1.00
18541;DHT22;9400;50.924;5.328;2023-06-10T16:38:23;38.90;1.00
18541;DHT22;9400;50.924;5.328;2023-06-10T16:40:52;39.00;1.00
18541;DHT22;9400;50.924;5.328;2023-06-10T16:43:20;38.50;1.00
18541;DHT22;9400;50.924;5.328;2023-06-10T16:45:48;38.10;1.00
18541;DHT22;9400;50.924;5.328;2023-06-10T16:48:16;38.50;1.00
18541;DHT22;9400;50.924;5.328;2023-06-10T16:50:43;39.00;1.00
18541;DHT22;9400;50.924;5.328;2023-06-10T16:53:11;38.50;1.00
18541;DHT22;9400;50.924;5.328;2023-06-10T16:55:38;39.00;1.00
18541;DHT22;9400;50.924;5.328;2023-06-10T16:58:09;38.40;1.00
18541;DHT22;9400;50.924;5.328;2023-06-10T17:00:36;38.10;1.00
18541;DHT22;9400;50.924;5.328;2023-06-10T17:03:04;37.80;1.00
18541;DHT22;9400;50.924;5.328;2023-06-10T17:05:33;38.10;1.00
18541;DHT22;9400;50.924;5.328;2023-06-10T17:08:01;37.70;1.00
18541;DHT22;9400;50.924;5.328;2023-06-10T17:10:29;38.10;1.00
18541;DHT22;9400;50.924;5.328;2023-06-10T17:12:56;39.30;1.00
18541;DHT22;9400;50.924;5.328;2023-06-10T17:15:26;39.20;1.00
18541;DHT22;9400;50.924;5.328;2023-06-10T17:17:56;39.40;1.00
18541;DHT22;9400;50.924;5.328;2023-06-10T17:20:24;38.40;1.00
18541;DHT22;9400;50.924;5.328;2023-06-10T17:22:52;38.40;1.00
18541;DHT22;9400;50.924;5.328;2023-06-10T17:25:20;37.60;1.00
18541;DHT22;9400;50.924;5.328;2023-06-10T17:27:47;37.70;1.00
18541;DHT22;9400;50.924;5.328;2023-06-10T17:30:15;37.50;1.00